createdAt,value
2023-05-03T00:01:00.369Z,2.80
2023-05-03T00:03:31.028Z,2.67
2023-05-03T00:06:10.208Z,2.97
2023-05-03T00:08:39.379Z,2.40
2023-05-03T00:11:08.731Z,2.78
2023-05-03T00:13:38.201Z,2.90
2023-05-03T00:16:09.536Z,2.55
2023-05-03T00:18:38.604Z,3.33
2023-05-03T00:21:07.876Z,3.80
2023-05-03T00:23:38.809Z,2.85
2023-05-03T00:26:07.984Z,2.88
2023-05-03T00:28:37.276Z,2.70
2023-05-03T00:31:12.137Z,2.88
2023-05-03T00:33:42.219Z,2.97
2023-05-03T00:36:12.072Z,3.30
2023-05-03T00:38:43.152Z,3.28
2023-05-03T00:41:13.977Z,2.45
2023-05-03T00:43:43.392Z,2.88
2023-05-03T00:46:17.204Z,2.80
2023-05-03T00:48:49.291Z,3.30
2023-05-03T00:51:20.429Z,3.60
2023-05-03T00:53:49.629Z,2.83
2023-05-03T00:56:23.040Z,3.42
2023-05-03T00:58:53.594Z,3.00
2023-05-03T01:01:24.591Z,3.05
2023-05-03T01:03:54.191Z,3.20
2023-05-03T01:06:33.955Z,2.95
2023-05-03T01:09:08.201Z,3.30
2023-05-03T01:11:49.137Z,3.15
2023-05-03T01:14:28.709Z,3.75
2023-05-03T01:17:06.828Z,3.22
2023-05-03T01:19:40.241Z,2.92
2023-05-03T01:22:18.772Z,4.35
2023-05-03T01:24:52.928Z,2.97
2023-05-03T01:27:24.058Z,3.80
2023-05-03T01:29:53.005Z,4.10
2023-05-03T01:32:31.728Z,2.58
2023-05-03T01:35:09.788Z,2.78
2023-05-03T01:37:41.494Z,2.72
2023-05-03T01:40:13.078Z,2.72
2023-05-03T01:42:43.801Z,3.55
2023-05-03T01:45:13.497Z,3.08
2023-05-03T01:47:42.502Z,3.42
2023-05-03T01:50:13.584Z,3.03
2023-05-03T01:52:42.694Z,3.70
2023-05-03T01:55:12.094Z,3.20
2023-05-03T01:57:42.521Z,3.47
2023-05-03T02:00:12.805Z,2.88
2023-05-03T02:02:41.828Z,3.30
2023-05-03T02:05:12.638Z,2.70
2023-05-03T02:07:41.805Z,3.75
2023-05-03T02:10:14.754Z,3.17
2023-05-03T02:12:45.822Z,2.53
2023-05-03T02:15:16.010Z,2.92
2023-05-03T02:17:47.376Z,3.05
2023-05-03T02:20:16.516Z,3.05
2023-05-03T02:22:45.672Z,3.88
2023-05-03T02:25:14.614Z,3.53
2023-05-03T02:27:44.865Z,3.95
2023-05-03T02:30:14.894Z,3.50
2023-05-03T02:32:45.602Z,2.97
2023-05-03T02:35:15.173Z,3.55
2023-05-03T02:37:44.236Z,3.33
2023-05-03T02:40:15.287Z,3.65
2023-05-03T02:42:48.331Z,2.90
2023-05-03T02:45:24.738Z,2.70
2023-05-03T02:47:53.716Z,2.22
2023-05-03T02:50:24.005Z,2.75
2023-05-03T02:52:53.063Z,5.05
2023-05-03T02:55:23.005Z,3.63
2023-05-03T02:57:54.068Z,4.13
2023-05-03T03:00:23.503Z,4.43
2023-05-03T03:02:52.876Z,3.28
2023-05-03T03:05:23.128Z,3.58
2023-05-03T03:07:53.534Z,3.50
2023-05-03T03:10:22.753Z,3.72
2023-05-03T03:12:53.026Z,3.28
2023-05-03T03:15:31.564Z,3.50
2023-05-03T03:18:01.165Z,4.45
2023-05-03T03:20:30.590Z,3.95
2023-05-03T03:22:59.658Z,5.00
2023-05-03T03:25:29.198Z,3.45
2023-05-03T03:28:01.511Z,3.83
2023-05-03T03:30:31.490Z,3.75
2023-05-03T03:33:11.414Z,4.20
2023-05-03T03:35:43.153Z,4.07
2023-05-03T03:38:14.019Z,3.88
2023-05-03T03:40:50.906Z,3.90
2023-05-03T03:43:21.915Z,4.43
2023-05-03T03:45:51.575Z,4.30
2023-05-03T03:48:20.675Z,3.70
2023-05-03T03:50:50.805Z,4.30
2023-05-03T03:53:21.876Z,3.63
2023-05-03T03:55:50.886Z,3.50
2023-05-03T03:58:22.099Z,3.78
2023-05-03T04:00:51.942Z,3.75
2023-05-03T04:03:24.390Z,4.60
2023-05-03T04:05:54.003Z,4.32
2023-05-03T04:08:23.970Z,4.78
2023-05-03T04:10:52.903Z,4.70
2023-05-03T04:13:23.413Z,4.38
2023-05-03T04:15:57.139Z,4.03
2023-05-03T04:18:27.674Z,4.05
2023-05-03T04:20:59.347Z,4.97
2023-05-03T04:23:31.266Z,4.78
2023-05-03T04:26:01.332Z,4.60
2023-05-03T04:28:33.755Z,3.00
2023-05-03T04:31:03.865Z,4.03
2023-05-03T04:33:35.205Z,4.15
2023-05-03T04:36:06.815Z,3.55
2023-05-03T04:38:38.781Z,5.18
2023-05-03T04:41:08.811Z,3.83
2023-05-03T04:43:41.037Z,3.92
2023-05-03T04:46:10.404Z,2.55
2023-05-03T04:48:39.886Z,3.63
2023-05-03T04:51:09.953Z,3.88
2023-05-03T04:53:39.010Z,4.18
2023-05-03T04:56:13.055Z,3.95
2023-05-03T04:58:44.923Z,4.57
2023-05-03T05:01:16.671Z,4.28
2023-05-03T05:03:45.986Z,3.20
2023-05-03T05:06:21.419Z,4.30
2023-05-03T05:08:52.056Z,4.72
2023-05-03T05:11:22.364Z,5.25
2023-05-03T05:13:53.209Z,6.00
2023-05-03T05:16:22.388Z,4.83
2023-05-03T05:18:55.282Z,4.73
2023-05-03T05:21:28.771Z,4.18
2023-05-03T05:23:58.798Z,4.05
2023-05-03T05:26:28.594Z,3.88
2023-05-03T05:28:59.352Z,3.70
2023-05-03T05:31:28.472Z,3.60
2023-05-03T05:33:57.540Z,4.32
2023-05-03T05:36:26.625Z,5.53
2023-05-03T05:38:56.000Z,5.68
2023-05-03T05:41:27.886Z,4.25
2023-05-03T05:44:01.239Z,5.20
2023-05-03T05:46:32.341Z,3.88
2023-05-03T05:49:01.812Z,4.53
2023-05-03T05:51:32.000Z,5.07
2023-05-03T05:54:01.666Z,3.60
2023-05-03T05:56:30.718Z,3.38
2023-05-03T05:59:01.130Z,3.97
2023-05-03T06:01:32.177Z,4.13
2023-05-03T06:04:02.215Z,4.93
2023-05-03T06:06:31.598Z,6.35
2023-05-03T06:09:04.725Z,4.63
2023-05-03T06:11:39.421Z,3.70
2023-05-03T06:14:10.827Z,3.70
2023-05-03T06:16:42.554Z,2.85
2023-05-03T06:19:11.777Z,3.80
2023-05-03T06:21:40.686Z,3.25
2023-05-03T06:24:10.048Z,3.45
2023-05-03T06:26:39.539Z,3.63
2023-05-03T06:29:10.675Z,3.83
2023-05-03T06:31:42.023Z,3.83
2023-05-03T06:34:12.447Z,3.65
2023-05-03T06:36:43.692Z,3.95
2023-05-03T06:39:12.719Z,3.10
2023-05-03T06:41:41.788Z,4.07
2023-05-03T06:44:12.366Z,2.92
2023-05-03T06:46:41.588Z,4.00
2023-05-03T06:49:10.794Z,2.38
2023-05-03T06:51:40.168Z,3.03
2023-05-03T06:54:09.929Z,3.38
2023-05-03T06:56:39.270Z,2.40
2023-05-03T06:59:08.505Z,1.90
2023-05-03T07:01:39.299Z,2.55
2023-05-03T07:04:08.615Z,2.35
2023-05-03T07:06:48.252Z,3.10
2023-05-03T07:09:41.431Z,2.90
2023-05-03T07:12:12.680Z,2.00
2023-05-03T07:14:41.941Z,2.15
2023-05-03T07:17:12.597Z,2.03
2023-05-03T07:19:44.247Z,2.20
2023-05-03T07:22:14.590Z,2.35
2023-05-03T07:24:44.128Z,2.50
2023-05-03T07:27:13.233Z,3.50
2023-05-03T07:29:42.165Z,3.27
2023-05-03T07:32:13.014Z,2.80
2023-05-03T07:34:42.077Z,2.27
2023-05-03T07:37:11.037Z,2.47
2023-05-03T07:39:40.347Z,2.00
2023-05-03T07:42:09.328Z,2.33
2023-05-03T07:44:45.294Z,2.50
2023-05-03T07:47:15.828Z,3.67
2023-05-03T07:49:44.853Z,2.43
2023-05-03T07:52:16.491Z,3.43
2023-05-03T07:54:46.040Z,2.60
2023-05-03T07:57:16.449Z,2.97
2023-05-03T07:59:45.396Z,2.60
2023-05-03T08:02:15.741Z,1.90
2023-05-03T08:04:44.970Z,2.07
2023-05-03T08:07:14.208Z,2.40
2023-05-03T08:09:43.712Z,2.50
2023-05-03T08:12:12.763Z,2.90
2023-05-03T08:14:42.230Z,3.13
2023-05-03T08:17:11.571Z,3.37
2023-05-03T08:19:42.417Z,2.87
2023-05-03T08:22:12.488Z,2.40
2023-05-03T08:24:42.522Z,7.47
2023-05-03T08:27:12.700Z,2.70
2023-05-03T08:29:41.841Z,2.63
2023-05-03T08:32:10.886Z,3.00
2023-05-03T08:34:44.418Z,2.63
2023-05-03T08:37:14.351Z,3.40
2023-05-03T08:39:43.559Z,2.80
2023-05-03T08:42:12.728Z,2.43
2023-05-03T08:44:48.135Z,2.80
2023-05-03T08:47:18.316Z,2.60
2023-05-03T08:49:50.591Z,2.97
2023-05-03T08:52:21.376Z,3.03
2023-05-03T08:54:50.431Z,2.90
2023-05-03T08:57:25.127Z,2.87
2023-05-03T08:59:58.532Z,1.93
2023-05-03T09:02:28.641Z,2.60
2023-05-03T09:04:59.481Z,3.97
2023-05-03T09:07:28.462Z,3.03
2023-05-03T09:09:59.032Z,2.73
2023-05-03T09:12:41.390Z,3.00
2023-05-03T09:15:24.052Z,2.50
2023-05-03T09:18:13.247Z,2.40
2023-05-03T09:20:51.443Z,2.00
2023-05-03T09:23:32.895Z,3.60
2023-05-03T09:26:02.110Z,4.23
2023-05-03T09:28:31.311Z,3.03
2023-05-03T09:31:07.916Z,2.80
2023-05-03T09:33:36.836Z,2.33
2023-05-03T09:36:08.286Z,3.70
2023-05-03T09:38:39.243Z,2.87
2023-05-03T09:41:12.350Z,2.70
2023-05-03T09:43:51.687Z,2.60
2023-05-03T09:46:21.204Z,2.40
2023-05-03T09:48:50.643Z,4.20
2023-05-03T09:51:21.254Z,2.40
2023-05-03T09:53:57.427Z,2.50
2023-05-03T09:56:27.625Z,2.43
2023-05-03T09:58:56.824Z,3.20
2023-05-03T10:01:27.188Z,3.40
2023-05-03T10:03:59.388Z,2.33
2023-05-03T10:06:36.203Z,3.40
2023-05-03T10:09:16.585Z,2.70
2023-05-03T10:11:49.688Z,2.43
2023-05-03T10:14:18.917Z,2.60
2023-05-03T10:16:51.333Z,2.80
2023-05-03T10:19:25.235Z,2.60
2023-05-03T10:22:04.531Z,2.43
2023-05-03T10:24:34.310Z,2.13
2023-05-03T10:27:03.658Z,1.93
2023-05-03T10:29:54.199Z,2.33
2023-05-03T10:32:39.741Z,2.93
2023-05-03T10:35:16.228Z,2.03
2023-05-03T10:37:49.511Z,1.73
2023-05-03T10:40:20.816Z,2.00
2023-05-03T10:42:53.814Z,2.40
2023-05-03T10:45:25.490Z,1.97
2023-05-03T10:48:22.951Z,1.90
2023-05-03T10:50:54.820Z,2.23
2023-05-03T10:53:43.506Z,1.87
2023-05-03T10:56:15.783Z,2.60
2023-05-03T10:58:46.756Z,2.23
2023-05-03T11:01:18.815Z,2.07
2023-05-03T11:04:03.910Z,1.77
2023-05-03T11:06:35.050Z,1.97
2023-05-03T11:09:08.567Z,4.43
2023-05-03T11:11:39.574Z,2.30
2023-05-03T11:14:11.709Z,2.33
2023-05-03T11:16:48.374Z,1.73
2023-05-03T11:19:18.041Z,1.93
2023-05-03T11:21:48.501Z,1.80
2023-05-03T11:24:20.317Z,1.80
2023-05-03T11:26:49.918Z,2.37
2023-05-03T11:29:19.762Z,1.90
2023-05-03T11:31:49.102Z,2.43
2023-05-03T11:34:20.811Z,1.90
2023-05-03T11:36:51.232Z,2.27
2023-05-03T11:39:23.933Z,2.13
2023-05-03T11:42:08.821Z,3.10
2023-05-03T11:44:38.203Z,2.30
2023-05-03T11:47:09.364Z,2.80
2023-05-03T11:49:38.479Z,2.10
2023-05-03T11:52:07.750Z,2.13
2023-05-03T11:54:38.458Z,2.43
2023-05-03T11:57:15.277Z,3.20
2023-05-03T11:59:44.915Z,3.20
2023-05-03T12:02:15.612Z,3.13
2023-05-03T12:05:03.522Z,2.43
2023-05-03T12:07:33.130Z,2.70
2023-05-03T12:10:20.284Z,2.73
2023-05-03T12:13:00.490Z,2.60
2023-05-03T12:15:33.606Z,3.40
2023-05-03T12:18:09.969Z,2.50
2023-05-03T12:21:28.502Z,2.07
2023-05-03T12:23:30.911Z,2.83
2023-05-03T12:26:04.846Z,2.73
2023-05-03T12:28:35.544Z,2.63
2023-05-03T12:31:05.480Z,2.47
2023-05-03T12:33:36.182Z,2.77
2023-05-03T12:36:09.845Z,2.47
2023-05-03T12:38:40.629Z,2.90
2023-05-03T12:41:20.805Z,2.80
2023-05-03T12:44:02.829Z,2.87
2023-05-03T12:46:35.202Z,2.40
2023-05-03T12:49:07.736Z,2.90
2023-05-03T12:51:42.055Z,2.83
2023-05-03T12:54:12.382Z,2.87
2023-05-03T12:56:54.840Z,2.40
2023-05-03T12:59:40.471Z,2.70
2023-05-03T13:04:57.875Z,2.57
2023-05-03T13:07:31.594Z,2.87
2023-05-03T13:12:37.889Z,3.43
2023-05-03T13:15:08.373Z,3.17
2023-05-03T13:17:37.631Z,2.53
2023-05-03T13:20:08.342Z,2.10
2023-05-03T13:22:38.432Z,2.07
2023-05-03T13:25:08.589Z,2.47
2023-05-03T13:27:39.045Z,2.40
2023-05-03T13:30:10.126Z,2.53
2023-05-03T13:32:39.518Z,2.17
2023-05-03T13:35:10.811Z,2.80
2023-05-03T13:37:40.303Z,2.47
2023-05-03T13:40:11.024Z,3.10
2023-05-03T13:42:43.509Z,3.10
2023-05-03T13:45:13.647Z,2.80
2023-05-03T13:48:05.278Z,3.07
2023-05-03T13:50:31.936Z,2.97
2023-05-03T13:53:00.925Z,2.83
2023-05-03T13:55:29.897Z,2.97
2023-05-03T13:58:00.310Z,2.83
2023-05-03T14:00:31.603Z,2.70
2023-05-03T14:03:01.407Z,2.70
2023-05-03T14:05:30.550Z,2.60
2023-05-03T14:07:59.706Z,2.87
2023-05-03T14:10:28.868Z,3.40
2023-05-03T14:13:00.495Z,2.63
2023-05-03T14:15:29.875Z,2.37
2023-05-03T14:18:02.012Z,4.30
2023-05-03T14:20:34.226Z,2.80
2023-05-03T14:23:03.901Z,2.90
2023-05-03T14:25:33.153Z,3.47
2023-05-03T14:28:04.058Z,2.73
2023-05-03T14:30:34.453Z,2.40
2023-05-03T14:33:03.447Z,2.63
2023-05-03T14:35:32.945Z,2.23
2023-05-03T14:38:01.862Z,2.77
2023-05-03T14:40:30.944Z,2.37
2023-05-03T14:42:59.869Z,2.13
2023-05-03T14:45:33.317Z,3.03
2023-05-03T14:48:02.805Z,2.57
2023-05-03T14:50:32.629Z,4.27
2023-05-03T14:53:01.772Z,2.40
2023-05-03T14:55:30.841Z,2.20
2023-05-03T14:57:59.831Z,2.63
2023-05-03T15:00:31.629Z,2.13
2023-05-03T15:03:02.352Z,2.63
2023-05-03T15:05:33.349Z,3.00
2023-05-03T15:08:02.525Z,2.57
2023-05-03T15:10:31.388Z,4.30
2023-05-03T15:13:00.409Z,2.50
2023-05-03T15:15:29.618Z,3.90
2023-05-03T15:17:58.707Z,2.80
2023-05-03T15:20:29.570Z,2.37
2023-05-03T15:22:58.615Z,2.47
2023-05-03T15:25:28.120Z,2.17
2023-05-03T15:28:00.622Z,3.60
2023-05-03T15:30:32.326Z,3.00
2023-05-03T15:33:04.939Z,2.53
2023-05-03T15:35:35.287Z,3.50
2023-05-03T15:38:07.450Z,3.03
2023-05-03T15:40:36.423Z,4.80
2023-05-03T15:43:05.536Z,2.23
2023-05-03T15:45:34.715Z,2.47
2023-05-03T15:48:04.630Z,2.60
2023-05-03T15:50:37.576Z,3.80
2023-05-03T15:53:06.625Z,2.80
2023-05-03T15:55:35.706Z,2.63
2023-05-03T15:58:07.629Z,2.37
2023-05-03T16:00:37.699Z,4.83
2023-05-03T16:03:06.833Z,3.30
2023-05-03T16:05:37.350Z,2.20
2023-05-03T16:08:08.211Z,1.70
2023-05-03T16:10:37.252Z,1.73
2023-05-03T16:13:09.996Z,2.60
2023-05-03T16:15:39.058Z,1.90
2023-05-03T16:18:08.569Z,2.03
2023-05-03T16:20:39.134Z,2.47
2023-05-03T16:23:08.343Z,2.67
2023-05-03T16:25:37.403Z,2.77
2023-05-03T16:28:06.657Z,2.70
2023-05-03T16:30:35.694Z,2.83
2023-05-03T16:33:05.028Z,3.27
2023-05-03T16:35:34.208Z,2.40
2023-05-03T16:38:06.074Z,1.97
2023-05-03T16:40:35.183Z,2.10
2023-05-03T16:43:04.150Z,2.70
2023-05-03T16:45:33.338Z,2.53
2023-05-03T16:48:05.457Z,2.13
2023-05-03T16:50:37.181Z,2.33
2023-05-03T16:53:16.634Z,2.60
2023-05-03T16:55:46.444Z,2.53
2023-05-03T16:58:17.399Z,2.30
2023-05-03T17:00:48.206Z,2.83
2023-05-03T17:03:17.472Z,2.47
2023-05-03T17:05:46.643Z,3.10
2023-05-03T17:08:17.065Z,2.50
2023-05-03T17:10:46.384Z,2.37
2023-05-03T17:13:16.518Z,3.17
2023-05-03T17:15:45.741Z,2.37
2023-05-03T17:18:14.794Z,2.70
2023-05-03T17:20:44.101Z,2.00
2023-05-03T17:23:13.131Z,2.97
2023-05-03T17:25:44.466Z,1.97
2023-05-03T17:28:13.437Z,3.67
2023-05-03T17:30:42.608Z,3.60
2023-05-03T17:33:11.621Z,2.07
2023-05-03T17:35:40.633Z,2.10
2023-05-03T17:38:09.982Z,1.53
2023-05-03T17:40:41.168Z,3.00
2023-05-03T17:43:12.340Z,2.80
2023-05-03T17:45:42.858Z,2.83
2023-05-03T17:48:12.733Z,2.37
2023-05-03T17:50:43.409Z,1.90
2023-05-03T17:53:12.460Z,2.30
2023-05-03T17:55:41.673Z,2.17
2023-05-03T17:58:12.194Z,3.00
2023-05-03T18:00:41.672Z,2.60
2023-05-03T18:03:13.391Z,2.33
2023-05-03T18:05:42.554Z,2.80
2023-05-03T18:08:12.213Z,3.67
2023-05-03T18:10:43.232Z,2.30
2023-05-03T18:13:13.761Z,2.57
2023-05-03T18:15:42.990Z,2.10
2023-05-03T18:18:13.559Z,2.33
2023-05-03T18:20:42.632Z,2.17
2023-05-03T18:23:11.668Z,2.00
2023-05-03T18:25:40.565Z,3.70
2023-05-03T18:28:09.484Z,3.10
2023-05-03T18:30:39.685Z,1.70
2023-05-03T18:33:08.677Z,2.33
2023-05-03T18:35:37.650Z,3.10
2023-05-03T18:38:06.934Z,3.10
2023-05-03T18:40:36.022Z,3.23
2023-05-03T18:43:04.964Z,3.70
2023-05-03T18:45:34.817Z,2.20
2023-05-03T18:48:07.496Z,2.60
2023-05-03T18:50:38.334Z,2.20
2023-05-03T18:53:07.666Z,2.70
2023-05-03T18:55:36.829Z,3.10
2023-05-03T18:58:05.846Z,2.90
2023-05-03T19:00:34.905Z,2.50
2023-05-03T19:03:06.181Z,2.80
2023-05-03T19:05:37.834Z,2.63
2023-05-03T19:08:07.153Z,2.77
2023-05-03T19:10:36.055Z,3.00
2023-05-03T19:13:05.003Z,2.40
2023-05-03T19:15:33.993Z,5.47
2023-05-03T19:18:04.493Z,3.60
2023-05-03T19:20:33.488Z,3.30
2023-05-03T19:23:02.662Z,3.83
2023-05-03T19:25:31.867Z,3.27
2023-05-03T19:28:01.170Z,3.60
2023-05-03T19:30:30.236Z,3.20
2023-05-03T19:32:59.442Z,3.13
2023-05-03T19:35:29.839Z,4.60
2023-05-03T19:37:59.006Z,3.37
2023-05-03T19:40:28.349Z,3.00
2023-05-03T19:43:02.856Z,3.47
2023-05-03T19:45:35.278Z,3.60
2023-05-03T19:48:04.861Z,4.87
2023-05-03T19:50:37.564Z,3.60
2023-05-03T19:53:06.461Z,3.77
2023-05-03T19:55:35.419Z,3.90
2023-05-03T19:58:04.630Z,3.13
2023-05-03T20:00:33.964Z,3.70
2023-05-03T20:03:03.219Z,4.93
2023-05-03T20:05:32.204Z,3.90
2023-05-03T20:08:02.499Z,3.73
2023-05-03T20:10:36.318Z,3.70
2023-05-03T20:13:05.530Z,2.97
2023-05-03T20:15:35.457Z,3.80
2023-05-03T20:18:04.898Z,3.50
2023-05-03T20:20:34.000Z,4.63
2023-05-03T20:23:04.296Z,3.27
2023-05-03T20:25:33.986Z,3.70
2023-05-03T20:28:03.678Z,4.13
2023-05-03T20:30:32.689Z,3.60
2023-05-03T20:33:02.182Z,4.20
2023-05-03T20:35:31.118Z,4.23
2023-05-03T20:38:00.268Z,4.30
2023-05-03T20:40:32.664Z,4.27
2023-05-03T20:43:02.464Z,4.47
2023-05-03T20:45:31.636Z,5.57
2023-05-03T20:48:00.685Z,3.70
2023-05-03T20:50:30.182Z,4.50
2023-05-03T20:52:59.302Z,4.00
2023-05-03T20:55:30.048Z,4.83
2023-05-03T20:57:59.188Z,5.20
2023-05-03T21:00:28.995Z,4.60
2023-05-03T21:02:58.357Z,4.80
2023-05-03T21:05:28.025Z,5.10
2023-05-03T21:07:56.985Z,3.78
2023-05-03T21:10:26.571Z,5.07
2023-05-03T21:12:56.906Z,4.40
2023-05-03T21:15:26.072Z,4.53
2023-05-03T21:17:56.654Z,4.90
2023-05-03T21:20:26.771Z,5.35
2023-05-03T21:22:56.970Z,4.30
2023-05-03T21:25:26.587Z,4.72
2023-05-03T21:28:00.179Z,4.78
2023-05-03T21:30:29.905Z,4.82
2023-05-03T21:33:01.866Z,5.30
2023-05-03T21:35:32.090Z,5.28
2023-05-03T21:38:01.074Z,4.10
2023-05-03T21:40:30.046Z,4.13
2023-05-03T21:43:00.381Z,5.15
2023-05-03T21:45:29.583Z,3.70
2023-05-03T21:48:02.168Z,3.55
2023-05-03T21:50:31.226Z,3.97
2023-05-03T21:53:00.431Z,5.38
2023-05-03T21:55:29.749Z,4.65
2023-05-03T21:58:02.892Z,3.42
2023-05-03T22:00:31.913Z,3.83
2023-05-03T22:03:00.898Z,4.45
2023-05-03T22:05:30.054Z,4.07
2023-05-03T22:07:58.961Z,3.92
2023-05-03T22:10:31.036Z,3.80
2023-05-03T22:13:01.592Z,5.30
2023-05-03T22:15:33.307Z,3.65
2023-05-03T22:18:02.457Z,4.78
2023-05-03T22:20:33.536Z,3.50
2023-05-03T22:23:02.734Z,4.03
2023-05-03T22:25:32.490Z,4.90
2023-05-03T22:28:03.034Z,4.22
2023-05-03T22:30:33.402Z,3.75
2023-05-03T22:33:04.347Z,3.95
2023-05-03T22:35:33.542Z,4.53
2023-05-03T22:38:03.738Z,4.93
2023-05-03T22:40:32.956Z,4.07
2023-05-03T22:43:03.665Z,3.83
2023-05-03T22:45:36.090Z,4.25
2023-05-03T22:48:05.271Z,4.97
2023-05-03T22:50:34.384Z,4.20
2023-05-03T22:53:03.777Z,3.75
2023-05-03T22:55:34.730Z,3.88
2023-05-03T22:58:05.304Z,4.55
2023-05-03T23:00:34.304Z,4.13
2023-05-03T23:03:03.573Z,3.40
2023-05-03T23:05:32.577Z,4.57
2023-05-03T23:08:01.731Z,4.25
2023-05-03T23:10:31.037Z,5.32
2023-05-03T23:13:00.480Z,4.97
2023-05-03T23:15:31.713Z,4.72
2023-05-03T23:18:00.926Z,5.13
2023-05-03T23:20:30.220Z,3.70
2023-05-03T23:22:59.195Z,4.93
2023-05-03T23:25:28.175Z,4.70
2023-05-03T23:27:57.650Z,4.55
2023-05-03T23:30:27.106Z,3.88
2023-05-03T23:32:58.297Z,4.28
2023-05-03T23:35:27.769Z,4.35
2023-05-03T23:37:56.845Z,3.72
2023-05-03T23:40:25.911Z,3.95
2023-05-03T23:42:54.955Z,3.53
2023-05-03T23:45:24.996Z,5.45
2023-05-03T23:47:55.304Z,4.63
2023-05-03T23:50:30.212Z,4.60
2023-05-03T23:53:02.241Z,5.28
2023-05-03T23:55:35.808Z,4.40
2023-05-03T23:58:06.711Z,5.15
